sensor_id;sensor_type;location;lat;lon;timestamp;pressure;altitude;pressure_sealevel;temperature;humidity
71970;BME280;59838;52.152;5.436;2023-08-12T00:01:05;101816.66;;;19.21;100.00
71970;BME280;59838;52.152;5.436;2023-08-12T00:03:32;101811.41;;;19.21;100.00
71970;BME280;59838;52.152;5.436;2023-08-12T00:05:58;101815.44;;;19.23;100.00
71970;BME280;59838;52.152;5.436;2023-08-12T00:08:27;101821.50;;;19.24;100.00
71970;BME280;59838;52.152;5.436;2023-08-12T00:10:55;101819.91;;;19.23;100.00
71970;BME280;59838;52.152;5.436;2023-08-12T00:13:21;101808.78;;;19.21;100.00
71970;BME280;59838;52.152;5.436;2023-08-12T00:15:48;101809.59;;;19.21;100.00
71970;BME280;59838;52.152;5.436;2023-08-12T00:18:15;101818.06;;;19.23;100.00
71970;BME280;59838;52.152;5.436;2023-08-12T00:20:41;101822.31;;;19.24;100.00
71970;BME280;59838;52.152;5.436;2023-08-12T00:23:08;101814.66;;;19.23;100.00
71970;BME280;59838;52.152;5.436;2023-08-12T00:25:35;101810.59;;;19.20;100.00
71970;BME280;59838;52.152;5.436;2023-08-12T00:28:01;101802.91;;;19.18;100.00
71970;BME280;59838;52.152;5.436;2023-08-12T00:30:27;101812.88;;;19.16;100.00
71970;BME280;59838;52.152;5.436;2023-08-12T00:32:54;101807.00;;;19.14;100.00
71970;BME280;59838;52.152;5.436;2023-08-12T00:35:21;101806.63;;;19.11;100.00
71970;BME280;59838;52.152;5.436;2023-08-12T00:37:47;101800.78;;;19.09;100.00
71970;BME280;59838;52.152;5.436;2023-08-12T00:40:14;101794.94;;;19.07;100.00
71970;BME280;59838;52.152;5.436;2023-08-12T00:42:40;101792.50;;;19.05;100.00
71970;BME280;59838;52.152;5.436;2023-08-12T00:45:11;101784.22;;;19.02;100.00
71970;BME280;59838;52.152;5.436;2023-08-12T00:47:40;101788.69;;;19.01;100.00
71970;BME280;59838;52.152;5.436;2023-08-12T00:50:08;101782.03;;;18.98;100.00
71970;BME280;59838;52.152;5.436;2023-08-12T00:52:38;101774.56;;;18.95;100.00
71970;BME280;59838;52.152;5.436;2023-08-12T00:55:05;101779.00;;;18.95;100.00
71970;BME280;59838;52.152;5.436;2023-08-12T00:57:31;101764.66;;;18.91;100.00
71970;BME280;59838;52.152;5.436;2023-08-12T00:59:58;101773.56;;;18.90;100.00
71970;BME280;59838;52.152;5.436;2023-08-12T01:02:25;101776.22;;;18.90;100.00
71970;BME280;59838;52.152;5.436;2023-08-12T01:04:52;101768.75;;;18.87;100.00
71970;BME280;59838;52.152;5.436;2023-08-12T01:07:19;101766.53;;;18.84;100.00
71970;BME280;59838;52.152;5.436;2023-08-12T01:09:46;101764.28;;;18.80;100.00
71970;BME280;59838;52.152;5.436;2023-08-12T01:12:17;101757.44;;;18.79;100.00
71970;BME280;59838;52.152;5.436;2023-08-12T01:15:16;101755.22;;;18.76;100.00
71970;BME280;59838;52.152;5.436;2023-08-12T01:17:44;101756.25;;;18.75;100.00
71970;BME280;59838;52.152;5.436;2023-08-12T01:20:11;101755.06;;;18.71;100.00
71970;BME280;59838;52.152;5.436;2023-08-12T01:22:41;101748.19;;;18.70;100.00
71970;BME280;59838;52.152;5.436;2023-08-12T01:25:10;101755.50;;;18.68;100.00
71970;BME280;59838;52.152;5.436;2023-08-12T01:27:36;101758.34;;;18.67;100.00
71970;BME280;59838;52.152;5.436;2023-08-12T01:30:04;101749.03;;;18.64;100.00
71970;BME280;59838;52.152;5.436;2023-08-12T01:32:42;101751.09;;;18.62;100.00
71970;BME280;59838;52.152;5.436;2023-08-12T01:35:19;101748.88;;;18.59;100.00
71970;BME280;59838;52.152;5.436;2023-08-12T01:37:50;101744.03;;;18.56;100.00
71970;BME280;59838;52.152;5.436;2023-08-12T01:40:19;101736.97;;;18.56;100.00
71970;BME280;59838;52.152;5.436;2023-08-12T01:42:46;101745.06;;;18.55;100.00
71970;BME280;59838;52.152;5.436;2023-08-12T01:45:13;101736.75;;;18.58;100.00
71970;BME280;59838;52.152;5.436;2023-08-12T01:47:43;101728.25;;;18.56;100.00
71970;BME280;59838;52.152;5.436;2023-08-12T01:50:10;101730.09;;;18.55;100.00
71970;BME280;59838;52.152;5.436;2023-08-12T01:52:36;101730.66;;;18.57;100.00
71970;BME280;59838;52.152;5.436;2023-08-12T01:55:03;101726.00;;;18.59;100.00
71970;BME280;59838;52.152;5.436;2023-08-12T01:57:30;101719.13;;;18.58;100.00
71970;BME280;59838;52.152;5.436;2023-08-12T01:59:57;101707.81;;;18.58;100.00
71970;BME280;59838;52.152;5.436;2023-08-12T02:02:23;101718.75;;;18.55;100.00
71970;BME280;59838;52.152;5.436;2023-08-12T02:04:50;101703.97;;;18.54;100.00
71970;BME280;59838;52.152;5.436;2023-08-12T02:07:16;101707.63;;;18.53;100.00
71970;BME280;59838;52.152;5.436;2023-08-12T02:09:43;101703.19;;;18.53;100.00
71970;BME280;59838;52.152;5.436;2023-08-12T02:12:09;101700.56;;;18.53;100.00
71970;BME280;59838;52.152;5.436;2023-08-12T02:14:36;101701.13;;;18.55;100.00
71970;BME280;59838;52.152;5.436;2023-08-12T02:17:03;101698.28;;;18.57;100.00
71970;BME280;59838;52.152;5.436;2023-08-12T02:19:32;101698.88;;;18.59;100.00
71970;BME280;59838;52.152;5.436;2023-08-12T02:22:01;101692.03;;;18.58;100.00
71970;BME280;59838;52.152;5.436;2023-08-12T02:24:28;101698.06;;;18.58;100.00
71970;BME280;59838;52.152;5.436;2023-08-12T02:26:54;101696.03;;;18.60;100.00
71970;BME280;59838;52.152;5.436;2023-08-12T02:29:21;101697.66;;;18.61;100.00
71970;BME280;59838;52.152;5.436;2023-08-12T02:31:48;101692.38;;;18.61;100.00
71970;BME280;59838;52.152;5.436;2023-08-12T02:34:14;101688.72;;;18.62;100.00
71970;BME280;59838;52.152;5.436;2023-08-12T02:36:40;101690.75;;;18.60;100.00
71970;BME280;59838;52.152;5.436;2023-08-12T02:39:07;101687.13;;;18.61;100.00
71970;BME280;59838;52.152;5.436;2023-08-12T02:41:33;101686.09;;;18.62;100.00
71970;BME280;59838;52.152;5.436;2023-08-12T02:44:00;101682.66;;;18.62;100.00
71970;BME280;59838;52.152;5.436;2023-08-12T02:46:26;101683.47;;;18.62;100.00
71970;BME280;59838;52.152;5.436;2023-08-12T02:48:53;101679.81;;;18.63;100.00
71970;BME280;59838;52.152;5.436;2023-08-12T02:51:19;101679.81;;;18.63;100.00
71970;BME280;59838;52.152;5.436;2023-08-12T02:53:46;101678.81;;;18.64;100.00
71970;BME280;59838;52.152;5.436;2023-08-12T02:56:12;101670.69;;;18.66;100.00
71970;BME280;59838;52.152;5.436;2023-08-12T02:58:39;101674.13;;;18.67;100.00
71970;BME280;59838;52.152;5.436;2023-08-12T03:01:05;101666.00;;;18.68;100.00
71970;BME280;59838;52.152;5.436;2023-08-12T03:03:32;101662.94;;;18.71;100.00
71970;BME280;59838;52.152;5.436;2023-08-12T03:05:59;101665.59;;;18.71;100.00
71970;BME280;59838;52.152;5.436;2023-08-12T03:08:25;101653.22;;;18.72;100.00
71970;BME280;59838;52.152;5.436;2023-08-12T03:11:01;101653.00;;;18.73;100.00
71970;BME280;59838;52.152;5.436;2023-08-12T03:13:28;101656.22;;;18.75;100.00
71970;BME280;59838;52.152;5.436;2023-08-12T03:15:55;101647.31;;;18.76;100.00
71970;BME280;59838;52.152;5.436;2023-08-12T03:18:21;101648.94;;;18.77;100.00
71970;BME280;59838;52.152;5.436;2023-08-12T03:20:48;101646.28;;;18.77;100.00
71970;BME280;59838;52.152;5.436;2023-08-12T03:23:15;101641.59;;;18.79;100.00
71970;BME280;59838;52.152;5.436;2023-08-12T03:25:41;101637.94;;;18.80;100.00
71970;BME280;59838;52.152;5.436;2023-08-12T03:28:08;101643.19;;;18.80;100.00
71970;BME280;59838;52.152;5.436;2023-08-12T03:30:34;101640.34;;;18.82;100.00
71970;BME280;59838;52.152;5.436;2023-08-12T03:33:01;101640.34;;;18.82;100.00
71970;BME280;59838;52.152;5.436;2023-08-12T03:35:27;101633.09;;;18.84;100.00
71970;BME280;59838;52.152;5.436;2023-08-12T03:37:54;101631.25;;;18.85;100.00
71970;BME280;59838;52.152;5.436;2023-08-12T03:40:20;101630.03;;;18.87;100.00
71970;BME280;59838;52.152;5.436;2023-08-12T03:42:47;101628.19;;;18.88;100.00
71970;BME280;59838;52.152;5.436;2023-08-12T03:45:13;101612.41;;;18.88;100.00
71970;BME280;59838;52.152;5.436;2023-08-12T03:47:40;101615.59;;;18.90;100.00
71970;BME280;59838;52.152;5.436;2023-08-12T03:50:07;101618.81;;;18.92;100.00
71970;BME280;59838;52.152;5.436;2023-08-12T03:52:33;101618.59;;;18.93;100.00
71970;BME280;59838;52.152;5.436;2023-08-12T03:55:00;101606.25;;;18.94;100.00
71970;BME280;59838;52.152;5.436;2023-08-12T03:57:26;101606.03;;;18.95;100.00
71970;BME280;59838;52.152;5.436;2023-08-12T03:59:53;101604.78;;;18.98;100.00
71970;BME280;59838;52.152;5.436;2023-08-12T04:02:19;101603.78;;;18.99;100.00
71970;BME280;59838;52.152;5.436;2023-08-12T04:04:46;101600.13;;;19.00;100.00
71970;BME280;59838;52.152;5.436;2023-08-12T04:07:12;101599.88;;;19.02;100.00
71970;BME280;59838;52.152;5.436;2023-08-12T04:09:39;101591.97;;;19.02;100.00
71970;BME280;59838;52.152;5.436;2023-08-12T04:12:06;101594.59;;;19.02;100.00
71970;BME280;59838;52.152;5.436;2023-08-12T04:14:32;101577.00;;;19.02;100.00
71970;BME280;59838;52.152;5.436;2023-08-12T04:16:59;101580.22;;;19.04;100.00
71970;BME280;59838;52.152;5.436;2023-08-12T04:19:25;101579.63;;;19.02;100.00
71970;BME280;59838;52.152;5.436;2023-08-12T04:21:52;101592.59;;;19.04;100.00
71970;BME280;59838;52.152;5.436;2023-08-12T04:24:18;101590.75;;;19.04;100.00
71970;BME280;59838;52.152;5.436;2023-08-12T04:26:45;101580.00;;;19.06;100.00
71970;BME280;59838;52.152;5.436;2023-08-12T04:29:11;101588.25;;;19.09;100.00
71970;BME280;59838;52.152;5.436;2023-08-12T04:31:38;101589.66;;;19.12;100.00
71970;BME280;59838;52.152;5.436;2023-08-12T04:34:04;101581.31;;;19.15;100.00
71970;BME280;59838;52.152;5.436;2023-08-12T04:36:30;101583.72;;;19.16;100.00
71970;BME280;59838;52.152;5.436;2023-08-12T04:38:57;101572.13;;;19.17;100.00
71970;BME280;59838;52.152;5.436;2023-08-12T04:41:23;101566.66;;;19.19;100.00
71970;BME280;59838;52.152;5.436;2023-08-12T04:43:50;101565.19;;;19.23;100.00
71970;BME280;59838;52.152;5.436;2023-08-12T04:46:17;101557.19;;;19.30;100.00
71970;BME280;59838;52.152;5.436;2023-08-12T04:48:44;101548.63;;;19.34;100.00
71970;BME280;59838;52.152;5.436;2023-08-12T04:51:12;101538.00;;;19.41;100.00
71970;BME280;59838;52.152;5.436;2023-08-12T04:53:38;101533.06;;;19.45;100.00
71970;BME280;59838;52.152;5.436;2023-08-12T04:56:05;101538.69;;;19.48;100.00
71970;BME280;59838;52.152;5.436;2023-08-12T04:58:31;101541.72;;;19.52;100.00
71970;BME280;59838;52.152;5.436;2023-08-12T05:00:57;101527.47;;;19.53;100.00
71970;BME280;59838;52.152;5.436;2023-08-12T05:03:24;101526.25;;;19.55;100.00
71970;BME280;59838;52.152;5.436;2023-08-12T05:05:51;101520.97;;;19.55;100.00
71970;BME280;59838;52.152;5.436;2023-08-12T05:08:18;101532.88;;;19.58;100.00
71970;BME280;59838;52.152;5.436;2023-08-12T05:10:48;101524.97;;;19.58;100.00
71970;BME280;59838;52.152;5.436;2023-08-12T05:13:15;101516.28;;;19.58;100.00
71970;BME280;59838;52.152;5.436;2023-08-12T05:15:45;101522.56;;;19.57;100.00
71970;BME280;59838;52.152;5.436;2023-08-12T05:18:12;101513.63;;;19.58;100.00
71970;BME280;59838;52.152;5.436;2023-08-12T05:20:40;101529.22;;;19.59;100.00
71970;BME280;59838;52.152;5.436;2023-08-12T05:23:12;101533.47;;;19.60;100.00
71970;BME280;59838;52.152;5.436;2023-08-12T05:25:39;101529.00;;;19.61;100.00
71970;BME280;59838;52.152;5.436;2023-08-12T05:28:05;101527.16;;;19.61;100.00
71970;BME280;59838;52.152;5.436;2023-08-12T05:30:32;101529.56;;;19.63;100.00
71970;BME280;59838;52.152;5.436;2023-08-12T05:32:58;101532.81;;;19.65;100.00
71970;BME280;59838;52.152;5.436;2023-08-12T05:35:25;101532.31;;;19.68;100.00
71970;BME280;59838;52.152;5.436;2023-08-12T05:37:52;101525.25;;;19.68;100.00
71970;BME280;59838;52.152;5.436;2023-08-12T05:40:18;101528.22;;;19.72;100.00
71970;BME280;59838;52.152;5.436;2023-08-12T05:42:45;101529.00;;;19.72;100.00
71970;BME280;59838;52.152;5.436;2023-08-12T05:45:11;101532.06;;;19.76;100.00
71970;BME280;59838;52.152;5.436;2023-08-12T05:47:38;101523.09;;;19.77;100.00
71970;BME280;59838;52.152;5.436;2023-08-12T05:50:05;101527.34;;;19.78;100.00
71970;BME280;59838;52.152;5.436;2023-08-12T05:52:32;101528.38;;;19.77;100.00
71970;BME280;59838;52.152;5.436;2023-08-12T05:54:59;101526.78;;;19.76;100.00
71970;BME280;59838;52.152;5.436;2023-08-12T05:57:26;101527.56;;;19.77;100.00
71970;BME280;59838;52.152;5.436;2023-08-12T05:59:55;101521.50;;;19.76;100.00
71970;BME280;59838;52.152;5.436;2023-08-12T06:02:21;101517.81;;;19.77;100.00
71970;BME280;59838;52.152;5.436;2023-08-12T06:04:48;101514.16;;;19.78;100.00
71970;BME280;59838;52.152;5.436;2023-08-12T06:07:14;101515.19;;;19.77;100.00
71970;BME280;59838;52.152;5.436;2023-08-12T06:09:41;101521.25;;;19.78;100.00
71970;BME280;59838;52.152;5.436;2023-08-12T06:12:07;101520.47;;;19.77;100.00
71970;BME280;59838;52.152;5.436;2023-08-12T06:14:37;101528.38;;;19.77;100.00
71970;BME280;59838;52.152;5.436;2023-08-12T06:17:04;101538.31;;;19.75;100.00
71970;BME280;59838;52.152;5.436;2023-08-12T06:19:31;101522.72;;;19.73;100.00
71970;BME280;59838;52.152;5.436;2023-08-12T06:21:57;101523.75;;;19.72;100.00
71970;BME280;59838;52.152;5.436;2023-08-12T06:24:24;101519.88;;;19.75;100.00
71970;BME280;59838;52.152;5.436;2023-08-12T06:26:50;101517.22;;;19.75;100.00
71970;BME280;59838;52.152;5.436;2023-08-12T06:29:17;101524.16;;;19.76;100.00
71970;BME280;59838;52.152;5.436;2023-08-12T06:31:43;101525.34;;;19.73;100.00
71970;BME280;59838;52.152;5.436;2023-08-12T06:34:10;101525.59;;;19.72;100.00
71970;BME280;59838;52.152;5.436;2023-08-12T06:36:36;101522.16;;;19.71;100.00
71970;BME280;59838;52.152;5.436;2023-08-12T06:39:02;101540.84;;;19.70;100.00
71970;BME280;59838;52.152;5.436;2023-08-12T06:41:29;101532.94;;;19.70;100.00
71970;BME280;59838;52.152;5.436;2023-08-12T06:43:56;101531.53;;;19.67;100.00
71970;BME280;59838;52.152;5.436;2023-08-12T06:46:22;101533.59;;;19.65;100.00
71970;BME280;59838;52.152;5.436;2023-08-12T06:48:49;101537.25;;;19.64;100.00
71970;BME280;59838;52.152;5.436;2023-08-12T06:51:15;101525.91;;;19.64;100.00
71970;BME280;59838;52.152;5.436;2023-08-12T06:53:42;101524.31;;;19.63;100.00
71970;BME280;59838;52.152;5.436;2023-08-12T06:56:09;101519.03;;;19.63;100.00
71970;BME280;59838;52.152;5.436;2023-08-12T06:58:35;101508.25;;;19.64;100.00
71970;BME280;59838;52.152;5.436;2023-08-12T07:01:01;101504.59;;;19.65;100.00
71970;BME280;59838;52.152;5.436;2023-08-12T07:03:28;101513.31;;;19.66;100.00
71970;BME280;59838;52.152;5.436;2023-08-12T07:05:55;101506.44;;;19.65;100.00
71970;BME280;59838;52.152;5.436;2023-08-12T07:08:21;101508.03;;;19.66;100.00
71970;BME280;59838;52.152;5.436;2023-08-12T07:10:48;101506.44;;;19.65;100.00
71970;BME280;59838;52.152;5.436;2023-08-12T07:13:14;101506.19;;;19.66;100.00
71970;BME280;59838;52.152;5.436;2023-08-12T07:15:41;101501.53;;;19.68;100.00
71970;BME280;59838;52.152;5.436;2023-08-12T07:18:07;101498.88;;;19.68;100.00
71970;BME280;59838;52.152;5.436;2023-08-12T07:20:35;101500.47;;;19.69;100.00
71970;BME280;59838;52.152;5.436;2023-08-12T07:23:01;101506.56;;;19.70;100.00
71970;BME280;59838;52.152;5.436;2023-08-12T07:25:28;101494.41;;;19.69;100.00
71970;BME280;59838;52.152;5.436;2023-08-12T07:27:55;101488.91;;;19.70;100.00
71970;BME280;59838;52.152;5.436;2023-08-12T07:30:21;101493.94;;;19.72;100.00
71970;BME280;59838;52.152;5.436;2023-08-12T07:32:48;101488.47;;;19.73;100.00
71970;BME280;59838;52.152;5.436;2023-08-12T07:35:14;101485.59;;;19.75;100.00
71970;BME280;59838;52.152;5.436;2023-08-12T07:37:41;101489.06;;;19.76;100.00
71970;BME280;59838;52.152;5.436;2023-08-12T07:40:07;101480.13;;;19.77;100.00
71970;BME280;59838;52.152;5.436;2023-08-12T07:42:35;101475.41;;;19.79;100.00
71970;BME280;59838;52.152;5.436;2023-08-12T07:45:01;101483.31;;;19.79;100.00
71970;BME280;59838;52.152;5.436;2023-08-12T07:47:28;101475.75;;;19.82;100.00
71970;BME280;59838;52.152;5.436;2023-08-12T07:49:55;101471.66;;;19.86;100.00
71970;BME280;59838;52.152;5.436;2023-08-12T07:52:21;101470.38;;;19.89;100.00
71970;BME280;59838;52.152;5.436;2023-08-12T07:54:47;101473.25;;;19.87;100.00
71970;BME280;59838;52.152;5.436;2023-08-12T07:57:14;101478.28;;;19.89;100.00
71970;BME280;59838;52.152;5.436;2023-08-12T07:59:40;101482.06;;;19.93;100.00
71970;BME280;59838;52.152;5.436;2023-08-12T08:02:07;101473.38;;;19.93;100.00
71970;BME280;59838;52.152;5.436;2023-08-12T08:04:34;101473.94;;;19.95;100.00
71970;BME280;59838;52.152;5.436;2023-08-12T08:07:00;101479.78;;;19.97;100.00
71970;BME280;59838;52.152;5.436;2023-08-12T08:09:27;101477.97;;;19.97;100.00
71970;BME280;59838;52.152;5.436;2023-08-12T08:11:53;101472.91;;;19.96;100.00
71970;BME280;59838;52.152;5.436;2023-08-12T08:14:22;101481.84;;;19.95;100.00
71970;BME280;59838;52.152;5.436;2023-08-12T08:16:49;101476.34;;;19.96;100.00
71970;BME280;59838;52.152;5.436;2023-08-12T08:19:15;101475.06;;;19.99;100.00
71970;BME280;59838;52.152;5.436;2023-08-12T08:21:42;101476.22;;;20.03;100.00
71970;BME280;59838;52.152;5.436;2023-08-12T08:24:08;101479.44;;;20.05;100.00
71970;BME280;59838;52.152;5.436;2023-08-12T08:26:38;101472.56;;;20.04;100.00
71970;BME280;59838;52.152;5.436;2023-08-12T08:29:05;101476.91;;;20.10;100.00
71970;BME280;59838;52.152;5.436;2023-08-12T08:31:31;101479.69;;;20.15;100.00
71970;BME280;59838;52.152;5.436;2023-08-12T08:33:58;101480.34;;;20.22;100.00
71970;BME280;59838;52.152;5.436;2023-08-12T08:36:24;101482.06;;;20.28;100.00
71970;BME280;59838;52.152;5.436;2023-08-12T08:38:51;101476.09;;;20.33;100.00
71970;BME280;59838;52.152;5.436;2023-08-12T08:41:18;101488.47;;;20.33;100.00
71970;BME280;59838;52.152;5.436;2023-08-12T08:43:47;101485.50;;;20.29;100.00
71970;BME280;59838;52.152;5.436;2023-08-12T08:46:15;101489.97;;;20.28;100.00
71970;BME280;59838;52.152;5.436;2023-08-12T08:48:43;101480.31;;;20.34;100.00
71970;BME280;59838;52.152;5.436;2023-08-12T08:51:10;101488.59;;;20.38;100.00
71970;BME280;59838;52.152;5.436;2023-08-12T08:53:38;101488.69;;;20.43;100.00
71970;BME280;59838;52.152;5.436;2023-08-12T08:56:06;101487.66;;;20.44;100.00
71970;BME280;59838;52.152;5.436;2023-08-12T08:58:40;101499.50;;;20.41;100.00
71970;BME280;59838;52.152;5.436;2023-08-12T09:01:08;101494.91;;;20.37;100.00
71970;BME280;59838;52.152;5.436;2023-08-12T09:03:38;101493.97;;;20.31;100.00
71970;BME280;59838;52.152;5.436;2023-08-12T09:06:05;101496.63;;;20.31;100.00
71970;BME280;59838;52.152;5.436;2023-08-12T09:08:32;101514.88;;;20.21;100.00
71970;BME280;59838;52.152;5.436;2023-08-12T09:11:00;101524.59;;;19.97;100.00
71970;BME280;59838;52.152;5.436;2023-08-12T09:13:28;101536.06;;;19.79;100.00
71970;BME280;59838;52.152;5.436;2023-08-12T09:15:55;101539.31;;;19.62;100.00
71970;BME280;59838;52.152;5.436;2023-08-12T09:18:22;101536.78;;;19.55;100.00
71970;BME280;59838;52.152;5.436;2023-08-12T09:20:51;101545.34;;;19.51;100.00
71970;BME280;59838;52.152;5.436;2023-08-12T09:23:17;101544.88;;;19.42;100.00
71970;BME280;59838;52.152;5.436;2023-08-12T09:25:45;101526.72;;;19.34;100.00
71970;BME280;59838;52.152;5.436;2023-08-12T09:28:12;101514.84;;;19.43;100.00
71970;BME280;59838;52.152;5.436;2023-08-12T09:30:39;101514.81;;;19.62;100.00
71970;BME280;59838;52.152;5.436;2023-08-12T09:33:07;101516.91;;;19.83;100.00
71970;BME280;59838;52.152;5.436;2023-08-12T09:35:40;101527.59;;;19.88;100.00
71970;BME280;59838;52.152;5.436;2023-08-12T09:38:11;101531.38;;;19.93;100.00
71970;BME280;59838;52.152;5.436;2023-08-12T09:40:39;101534.13;;;19.98;100.00
71970;BME280;59838;52.152;5.436;2023-08-12T09:43:06;101544.47;;;19.99;100.00
71970;BME280;59838;52.152;5.436;2023-08-12T09:45:34;101545.94;;;19.83;100.00
71970;BME280;59838;52.152;5.436;2023-08-12T09:48:01;101546.09;;;19.70;100.00
71970;BME280;59838;52.152;5.436;2023-08-12T09:50:28;101553.19;;;19.69;100.00
71970;BME280;59838;52.152;5.436;2023-08-12T09:52:55;101551.94;;;19.72;100.00
71970;BME280;59838;52.152;5.436;2023-08-12T09:55:24;101559.84;;;19.72;100.00
71970;BME280;59838;52.152;5.436;2023-08-12T09:57:52;101567.91;;;19.77;100.00
71970;BME280;59838;52.152;5.436;2023-08-12T10:00:21;101572.06;;;19.85;100.00
71970;BME280;59838;52.152;5.436;2023-08-12T10:02:49;101581.03;;;19.96;100.00
71970;BME280;59838;52.152;5.436;2023-08-12T10:05:27;101570.03;;;20.11;100.00
71970;BME280;59838;52.152;5.436;2023-08-12T10:07:54;101571.75;;;20.05;100.00
71970;BME280;59838;52.152;5.436;2023-08-12T10:10:21;101583.78;;;20.01;100.00
71970;BME280;59838;52.152;5.436;2023-08-12T10:12:51;101578.19;;;20.09;100.00
71970;BME280;59838;52.152;5.436;2023-08-12T10:15:18;101568.56;;;20.26;100.00
71970;BME280;59838;52.152;5.436;2023-08-12T10:17:45;101556.84;;;20.46;100.00
71970;BME280;59838;52.152;5.436;2023-08-12T10:20:14;101549.81;;;20.87;100.00
71970;BME280;59838;52.152;5.436;2023-08-12T10:22:42;101548.69;;;21.12;100.00
71970;BME280;59838;52.152;5.436;2023-08-12T10:25:13;101562.28;;;21.32;100.00
71970;BME280;59838;52.152;5.436;2023-08-12T10:27:39;101564.94;;;21.61;100.00
71970;BME280;59838;52.152;5.436;2023-08-12T10:30:07;101560.47;;;21.96;100.00
71970;BME280;59838;52.152;5.436;2023-08-12T10:32:34;101559.19;;;21.98;100.00
71970;BME280;59838;52.152;5.436;2023-08-12T10:35:01;101553.38;;;22.18;98.43
71970;BME280;59838;52.152;5.436;2023-08-12T10:37:32;101565.03;;;22.34;98.72
71970;BME280;59838;52.152;5.436;2023-08-12T10:40:03;101554.28;;;22.63;97.71
71970;BME280;59838;52.152;5.436;2023-08-12T10:42:51;101554.28;;;22.85;97.32
71970;BME280;59838;52.152;5.436;2023-08-12T10:45:18;101555.59;;;22.82;95.25
71970;BME280;59838;52.152;5.436;2023-08-12T10:50:43;101562.19;;;22.41;96.15
71970;BME280;59838;52.152;5.436;2023-08-12T10:53:27;101568.41;;;22.30;96.63
71970;BME280;59838;52.152;5.436;2023-08-12T10:56:00;101565.03;;;22.34;94.49
71970;BME280;59838;52.152;5.436;2023-08-12T11:01:01;101555.13;;;22.69;92.10
71970;BME280;59838;52.152;5.436;2023-08-12T11:03:32;101568.88;;;22.66;91.30
71970;BME280;59838;52.152;5.436;2023-08-12T11:06:04;101558.72;;;22.79;92.45
71970;BME280;59838;52.152;5.436;2023-08-12T11:08:32;101566.50;;;23.08;93.36
71970;BME280;59838;52.152;5.436;2023-08-12T11:11:01;101562.16;;;23.02;92.26
71970;BME280;59838;52.152;5.436;2023-08-12T11:13:28;101563.44;;;22.99;92.27
71970;BME280;59838;52.152;5.436;2023-08-12T11:16:09;101562.28;;;22.90;94.09
71970;BME280;59838;52.152;5.436;2023-08-12T11:18:36;101561.53;;;22.95;92.36
71970;BME280;59838;52.152;5.436;2023-08-12T11:21:03;101556.81;;;22.97;90.80
71970;BME280;59838;52.152;5.436;2023-08-12T11:23:29;101558.03;;;23.11;91.04
71970;BME280;59838;52.152;5.436;2023-08-12T11:25:57;101559.19;;;23.21;91.17
71970;BME280;59838;52.152;5.436;2023-08-12T11:28:24;101552.00;;;23.16;86.65
71970;BME280;59838;52.152;5.436;2023-08-12T11:30:50;101547.72;;;23.42;88.66
71970;BME280;59838;52.152;5.436;2023-08-12T11:33:17;101543.34;;;23.58;85.12
71970;BME280;59838;52.152;5.436;2023-08-12T11:35:45;101554.06;;;23.68;83.11
71970;BME280;59838;52.152;5.436;2023-08-12T11:38:11;101555.13;;;23.67;81.40
71970;BME280;59838;52.152;5.436;2023-08-12T11:40:39;101561.38;;;23.83;85.08
71970;BME280;59838;52.152;5.436;2023-08-12T11:43:06;101559.13;;;24.02;83.77
71970;BME280;59838;52.152;5.436;2023-08-12T11:45:32;101554.63;;;24.03;77.57
71970;BME280;59838;52.152;5.436;2023-08-12T11:47:59;101563.72;;;24.12;80.68
71970;BME280;59838;52.152;5.436;2023-08-12T11:50:26;101558.91;;;24.09;75.14
71970;BME280;59838;52.152;5.436;2023-08-12T11:52:55;101555.13;;;24.00;76.15
71970;BME280;59838;52.152;5.436;2023-08-12T11:55:22;101556.78;;;24.11;77.21
71970;BME280;59838;52.152;5.436;2023-08-12T11:57:50;101551.84;;;24.25;79.12
71970;BME280;59838;52.152;5.436;2023-08-12T12:00:17;101554.19;;;24.21;74.25
71970;BME280;59838;52.152;5.436;2023-08-12T12:02:50;101550.53;;;24.33;78.06
71970;BME280;59838;52.152;5.436;2023-08-12T12:05:21;101550.63;;;24.48;75.22
71970;BME280;59838;52.152;5.436;2023-08-12T12:07:50;101563.88;;;24.43;72.47
71970;BME280;59838;52.152;5.436;2023-08-12T12:10:29;101558.06;;;24.46;74.17
71970;BME280;59838;52.152;5.436;2023-08-12T12:13:01;101553.34;;;24.58;74.54
71970;BME280;59838;52.152;5.436;2023-08-12T12:15:27;101552.34;;;24.75;75.03
71970;BME280;59838;52.152;5.436;2023-08-12T12:17:54;101561.13;;;24.70;75.48
71970;BME280;59838;52.152;5.436;2023-08-12T12:20:21;101555.84;;;24.91;75.39
71970;BME280;59838;52.152;5.436;2023-08-12T12:22:48;101559.34;;;25.12;73.45
71970;BME280;59838;52.152;5.436;2023-08-12T12:25:16;101554.56;;;25.04;69.84
71970;BME280;59838;52.152;5.436;2023-08-12T12:27:45;101559.09;;;25.13;71.07
71970;BME280;59838;52.152;5.436;2023-08-12T12:30:13;101561.75;;;25.13;71.20
71970;BME280;59838;52.152;5.436;2023-08-12T12:32:41;101555.06;;;24.95;67.79
71970;BME280;59838;52.152;5.436;2023-08-12T12:35:07;101563.19;;;24.63;67.79
71970;BME280;59838;52.152;5.436;2023-08-12T12:37:35;101562.38;;;24.57;72.46
71970;BME280;59838;52.152;5.436;2023-08-12T12:40:03;101565.84;;;24.58;71.54
71970;BME280;59838;52.152;5.436;2023-08-12T12:42:30;101559.34;;;24.43;72.18
71970;BME280;59838;52.152;5.436;2023-08-12T12:44:56;101562.69;;;24.66;69.55
71970;BME280;59838;52.152;5.436;2023-08-12T12:47:23;101564.44;;;24.50;69.56
71970;BME280;59838;52.152;5.436;2023-08-12T12:49:49;101559.19;;;24.60;68.03